sensor_id;sensor_type;location;lat;lon;timestamp;P1;durP1;ratioP1;P2;durP2;ratioP2
46090;SDS011;31826;53.572;10.170;2022-10-16T00:01:18;8.95;;;4.22;;
46090;SDS011;31826;53.572;10.170;2022-10-16T00:03:45;9.07;;;4.22;;
46090;SDS011;31826;53.572;10.170;2022-10-16T00:06:12;11.57;;;4.80;;
46090;SDS011;31826;53.572;10.170;2022-10-16T00:08:39;9.75;;;4.60;;
46090;SDS011;31826;53.572;10.170;2022-10-16T00:11:06;10.85;;;4.70;;
46090;SDS011;31826;53.572;10.170;2022-10-16T00:13:35;10.43;;;4.55;;
46090;SDS011;31826;53.572;10.170;2022-10-16T00:16:02;9.80;;;4.78;;
46090;SDS011;31826;53.572;10.170;2022-10-16T00:18:29;9.27;;;4.63;;
46090;SDS011;31826;53.572;10.170;2022-10-16T00:20:55;11.00;;;4.80;;
46090;SDS011;31826;53.572;10.170;2022-10-16T00:23:26;10.07;;;4.70;;
46090;SDS011;31826;53.572;10.170;2022-10-16T00:25:55;10.85;;;5.05;;
46090;SDS011;31826;53.572;10.170;2022-10-16T00:28:26;10.68;;;4.75;;
46090;SDS011;31826;53.572;10.170;2022-10-16T00:30:52;11.35;;;4.75;;
46090;SDS011;31826;53.572;10.170;2022-10-16T00:33:18;9.85;;;4.60;;
46090;SDS011;31826;53.572;10.170;2022-10-16T00:35:44;10.55;;;4.97;;
46090;SDS011;31826;53.572;10.170;2022-10-16T00:38:10;8.70;;;4.23;;
46090;SDS011;31826;53.572;10.170;2022-10-16T00:40:36;9.23;;;4.50;;
46090;SDS011;31826;53.572;10.170;2022-10-16T00:43:02;9.80;;;4.77;;
46090;SDS011;31826;53.572;10.170;2022-10-16T00:45:29;10.68;;;4.80;;
46090;SDS011;31826;53.572;10.170;2022-10-16T00:47:55;11.10;;;4.90;;
46090;SDS011;31826;53.572;10.170;2022-10-16T00:50:24;10.93;;;4.70;;
46090;SDS011;31826;53.572;10.170;2022-10-16T00:52:59;9.68;;;4.80;;
46090;SDS011;31826;53.572;10.170;2022-10-16T00:55:26;9.53;;;4.70;;
46090;SDS011;31826;53.572;10.170;2022-10-16T00:57:54;11.10;;;5.00;;
46090;SDS011;31826;53.572;10.170;2022-10-16T01:00:23;11.93;;;5.13;;
46090;SDS011;31826;53.572;10.170;2022-10-16T01:02:54;9.83;;;5.03;;
46090;SDS011;31826;53.572;10.170;2022-10-16T01:05:22;10.07;;;5.00;;
46090;SDS011;31826;53.572;10.170;2022-10-16T01:10:44;9.23;;;4.78;;
46090;SDS011;31826;53.572;10.170;2022-10-16T01:13:26;11.60;;;5.20;;
46090;SDS011;31826;53.572;10.170;2022-10-16T01:21:06;10.33;;;5.10;;
46090;SDS011;31826;53.572;10.170;2022-10-16T01:32:05;9.40;;;4.05;;
46090;SDS011;31826;53.572;10.170;2022-10-16T01:35:37;8.73;;;3.78;;
46090;SDS011;31826;53.572;10.170;2022-10-16T01:37:50;8.10;;;3.78;;
46090;SDS011;31826;53.572;10.170;2022-10-16T01:40:26;9.05;;;3.17;;
46090;SDS011;31826;53.572;10.170;2022-10-16T01:42:55;6.30;;;3.10;;
46090;SDS011;31826;53.572;10.170;2022-10-16T01:45:28;8.30;;;3.03;;
46090;SDS011;31826;53.572;10.170;2022-10-16T01:47:57;7.88;;;2.83;;
46090;SDS011;31826;53.572;10.170;2022-10-16T01:50:29;6.03;;;2.65;;
46090;SDS011;31826;53.572;10.170;2022-10-16T01:52:58;8.10;;;2.85;;
46090;SDS011;31826;53.572;10.170;2022-10-16T01:55:31;7.05;;;2.83;;
46090;SDS011;31826;53.572;10.170;2022-10-16T01:58:00;6.65;;;2.83;;
46090;SDS011;31826;53.572;10.170;2022-10-16T02:00:29;5.82;;;2.65;;
46090;SDS011;31826;53.572;10.170;2022-10-16T02:02:55;5.75;;;2.50;;
46090;SDS011;31826;53.572;10.170;2022-10-16T02:05:28;7.30;;;3.10;;
46090;SDS011;31826;53.572;10.170;2022-10-16T02:07:59;6.80;;;2.60;;
46090;SDS011;31826;53.572;10.170;2022-10-16T02:10:25;8.02;;;2.78;;
46090;SDS011;31826;53.572;10.170;2022-10-16T02:13:03;6.40;;;2.50;;
46090;SDS011;31826;53.572;10.170;2022-10-16T02:15:33;7.40;;;2.60;;
46090;SDS011;31826;53.572;10.170;2022-10-16T02:17:59;6.40;;;2.40;;
46090;SDS011;31826;53.572;10.170;2022-10-16T02:20:28;6.47;;;2.90;;
46090;SDS011;31826;53.572;10.170;2022-10-16T02:23:01;6.15;;;2.10;;
46090;SDS011;31826;53.572;10.170;2022-10-16T02:25:32;5.20;;;2.40;;
46090;SDS011;31826;53.572;10.170;2022-10-16T02:28:13;4.47;;;2.40;;
46090;SDS011;31826;53.572;10.170;2022-10-16T02:30:45;5.13;;;2.30;;
46090;SDS011;31826;53.572;10.170;2022-10-16T02:33:16;6.75;;;2.42;;
46090;SDS011;31826;53.572;10.170;2022-10-16T02:35:44;4.45;;;2.13;;
46090;SDS011;31826;53.572;10.170;2022-10-16T02:38:13;4.75;;;2.10;;
46090;SDS011;31826;53.572;10.170;2022-10-16T02:40:40;4.55;;;2.30;;
46090;SDS011;31826;53.572;10.170;2022-10-16T02:43:06;4.10;;;1.95;;
46090;SDS011;31826;53.572;10.170;2022-10-16T02:45:32;4.15;;;1.98;;
46090;SDS011;31826;53.572;10.170;2022-10-16T02:47:58;4.38;;;1.98;;
46090;SDS011;31826;53.572;10.170;2022-10-16T02:50:24;6.47;;;2.10;;
46090;SDS011;31826;53.572;10.170;2022-10-16T02:52:50;6.30;;;2.10;;
46090;SDS011;31826;53.572;10.170;2022-10-16T02:55:16;4.05;;;1.88;;
46090;SDS011;31826;53.572;10.170;2022-10-16T02:57:42;5.47;;;1.73;;
46090;SDS011;31826;53.572;10.170;2022-10-16T03:00:11;3.53;;;1.80;;
46090;SDS011;31826;53.572;10.170;2022-10-16T03:02:39;3.83;;;1.67;;
46090;SDS011;31826;53.572;10.170;2022-10-16T03:05:05;3.60;;;1.92;;
46090;SDS011;31826;53.572;10.170;2022-10-16T03:07:31;6.03;;;2.10;;
46090;SDS011;31826;53.572;10.170;2022-10-16T03:09:57;1.73;;;1.40;;
46090;SDS011;31826;53.572;10.170;2022-10-16T03:12:25;3.55;;;1.52;;
46090;SDS011;31826;53.572;10.170;2022-10-16T03:14:51;6.47;;;1.80;;
46090;SDS011;31826;53.572;10.170;2022-10-16T03:17:17;6.00;;;2.05;;
46090;SDS011;31826;53.572;10.170;2022-10-16T03:19:43;4.68;;;1.80;;
46090;SDS011;31826;53.572;10.170;2022-10-16T03:22:09;4.10;;;1.60;;
46090;SDS011;31826;53.572;10.170;2022-10-16T03:24:35;5.73;;;1.60;;
46090;SDS011;31826;53.572;10.170;2022-10-16T03:27:00;4.27;;;1.40;;
46090;SDS011;31826;53.572;10.170;2022-10-16T03:29:27;5.95;;;1.88;;
46090;SDS011;31826;53.572;10.170;2022-10-16T03:31:54;8.18;;;2.00;;
46090;SDS011;31826;53.572;10.170;2022-10-16T03:34:21;3.25;;;1.70;;
46090;SDS011;31826;53.572;10.170;2022-10-16T03:36:46;5.80;;;2.03;;
46090;SDS011;31826;53.572;10.170;2022-10-16T03:39:12;3.58;;;1.80;;
46090;SDS011;31826;53.572;10.170;2022-10-16T03:41:38;4.60;;;1.80;;
46090;SDS011;31826;53.572;10.170;2022-10-16T03:44:04;4.95;;;1.70;;
46090;SDS011;31826;53.572;10.170;2022-10-16T03:46:29;4.85;;;1.60;;
46090;SDS011;31826;53.572;10.170;2022-10-16T03:48:55;3.17;;;1.70;;
46090;SDS011;31826;53.572;10.170;2022-10-16T03:51:21;5.90;;;2.10;;
46090;SDS011;31826;53.572;10.170;2022-10-16T03:53:46;4.07;;;1.73;;
46090;SDS011;31826;53.572;10.170;2022-10-16T03:56:12;5.15;;;2.00;;
46090;SDS011;31826;53.572;10.170;2022-10-16T03:58:38;2.20;;;1.42;;
46090;SDS011;31826;53.572;10.170;2022-10-16T04:01:04;4.60;;;1.60;;
46090;SDS011;31826;53.572;10.170;2022-10-16T04:03:29;2.60;;;1.33;;
46090;SDS011;31826;53.572;10.170;2022-10-16T04:05:55;4.90;;;1.80;;
46090;SDS011;31826;53.572;10.170;2022-10-16T04:08:21;5.32;;;1.50;;
46090;SDS011;31826;53.572;10.170;2022-10-16T04:10:47;4.43;;;1.55;;
46090;SDS011;31826;53.572;10.170;2022-10-16T04:13:12;5.75;;;1.90;;
46090;SDS011;31826;53.572;10.170;2022-10-16T04:15:40;4.72;;;1.50;;
46090;SDS011;31826;53.572;10.170;2022-10-16T04:18:06;5.18;;;1.85;;
46090;SDS011;31826;53.572;10.170;2022-10-16T04:20:32;3.60;;;2.00;;
46090;SDS011;31826;53.572;10.170;2022-10-16T04:22:58;4.30;;;1.70;;
46090;SDS011;31826;53.572;10.170;2022-10-16T04:25:24;3.88;;;1.42;;
46090;SDS011;31826;53.572;10.170;2022-10-16T04:27:52;5.53;;;1.80;;
46090;SDS011;31826;53.572;10.170;2022-10-16T04:30:18;4.10;;;1.70;;
46090;SDS011;31826;53.572;10.170;2022-10-16T04:32:47;4.83;;;1.40;;
46090;SDS011;31826;53.572;10.170;2022-10-16T04:35:15;4.00;;;1.40;;
46090;SDS011;31826;53.572;10.170;2022-10-16T04:37:40;3.57;;;1.60;;
46090;SDS011;31826;53.572;10.170;2022-10-16T04:40:06;3.77;;;1.70;;
46090;SDS011;31826;53.572;10.170;2022-10-16T04:42:32;3.40;;;1.40;;
46090;SDS011;31826;53.572;10.170;2022-10-16T04:44:58;4.73;;;1.53;;
46090;SDS011;31826;53.572;10.170;2022-10-16T04:47:24;5.03;;;1.57;;
46090;SDS011;31826;53.572;10.170;2022-10-16T04:49:49;5.88;;;2.80;;
46090;SDS011;31826;53.572;10.170;2022-10-16T04:52:15;3.28;;;1.67;;
46090;SDS011;31826;53.572;10.170;2022-10-16T04:54:41;5.63;;;1.92;;
46090;SDS011;31826;53.572;10.170;2022-10-16T04:57:06;2.88;;;1.50;;
46090;SDS011;31826;53.572;10.170;2022-10-16T04:59:32;3.80;;;1.73;;
46090;SDS011;31826;53.572;10.170;2022-10-16T05:01:58;4.53;;;2.10;;
46090;SDS011;31826;53.572;10.170;2022-10-16T05:04:24;4.33;;;2.00;;
46090;SDS011;31826;53.572;10.170;2022-10-16T05:06:50;3.27;;;1.53;;
46090;SDS011;31826;53.572;10.170;2022-10-16T05:09:16;3.22;;;1.50;;
46090;SDS011;31826;53.572;10.170;2022-10-16T05:11:41;6.53;;;1.83;;
46090;SDS011;31826;53.572;10.170;2022-10-16T05:14:07;6.07;;;2.10;;
46090;SDS011;31826;53.572;10.170;2022-10-16T05:16:33;4.70;;;2.10;;
46090;SDS011;31826;53.572;10.170;2022-10-16T05:18:58;4.57;;;1.83;;
46090;SDS011;31826;53.572;10.170;2022-10-16T05:21:24;4.70;;;1.90;;
46090;SDS011;31826;53.572;10.170;2022-10-16T05:23:50;6.75;;;1.95;;
46090;SDS011;31826;53.572;10.170;2022-10-16T05:26:15;5.22;;;2.05;;
46090;SDS011;31826;53.572;10.170;2022-10-16T05:28:41;3.50;;;1.88;;
46090;SDS011;31826;53.572;10.170;2022-10-16T05:31:07;2.97;;;1.53;;
46090;SDS011;31826;53.572;10.170;2022-10-16T05:33:34;4.20;;;1.80;;
46090;SDS011;31826;53.572;10.170;2022-10-16T05:36:04;5.63;;;1.92;;
46090;SDS011;31826;53.572;10.170;2022-10-16T05:38:32;5.85;;;2.00;;
46090;SDS011;31826;53.572;10.170;2022-10-16T05:40:58;7.07;;;1.90;;
46090;SDS011;31826;53.572;10.170;2022-10-16T05:43:24;4.45;;;2.00;;
46090;SDS011;31826;53.572;10.170;2022-10-16T05:45:58;5.47;;;2.00;;
46090;SDS011;31826;53.572;10.170;2022-10-16T05:48:25;7.00;;;2.10;;
46090;SDS011;31826;53.572;10.170;2022-10-16T05:51:02;5.50;;;2.22;;
46090;SDS011;31826;53.572;10.170;2022-10-16T05:53:30;5.40;;;2.05;;
46090;SDS011;31826;53.572;10.170;2022-10-16T05:55:58;6.50;;;2.22;;
46090;SDS011;31826;53.572;10.170;2022-10-16T05:58:24;9.07;;;2.60;;
46090;SDS011;31826;53.572;10.170;2022-10-16T06:00:56;5.57;;;2.20;;
46090;SDS011;31826;53.572;10.170;2022-10-16T06:03:24;6.18;;;2.42;;
46090;SDS011;31826;53.572;10.170;2022-10-16T06:05:50;6.27;;;2.10;;
46090;SDS011;31826;53.572;10.170;2022-10-16T06:08:17;5.47;;;1.90;;
46090;SDS011;31826;53.572;10.170;2022-10-16T06:10:44;4.43;;;1.90;;
46090;SDS011;31826;53.572;10.170;2022-10-16T06:13:11;7.40;;;1.80;;
46090;SDS011;31826;53.572;10.170;2022-10-16T06:15:38;5.75;;;1.90;;
46090;SDS011;31826;53.572;10.170;2022-10-16T06:18:06;4.60;;;1.70;;
46090;SDS011;31826;53.572;10.170;2022-10-16T06:20:35;4.35;;;1.88;;
46090;SDS011;31826;53.572;10.170;2022-10-16T06:23:02;5.32;;;1.95;;
46090;SDS011;31826;53.572;10.170;2022-10-16T06:25:29;4.93;;;1.80;;
46090;SDS011;31826;53.572;10.170;2022-10-16T06:27:56;4.43;;;2.00;;
46090;SDS011;31826;53.572;10.170;2022-10-16T06:30:22;5.88;;;2.00;;
46090;SDS011;31826;53.572;10.170;2022-10-16T06:32:47;4.80;;;1.73;;
46090;SDS011;31826;53.572;10.170;2022-10-16T06:35:13;3.70;;;1.80;;
46090;SDS011;31826;53.572;10.170;2022-10-16T06:37:39;4.50;;;1.93;;
46090;SDS011;31826;53.572;10.170;2022-10-16T06:40:05;3.37;;;1.70;;
46090;SDS011;31826;53.572;10.170;2022-10-16T06:42:31;4.80;;;1.65;;
46090;SDS011;31826;53.572;10.170;2022-10-16T06:44:57;4.78;;;2.00;;
46090;SDS011;31826;53.572;10.170;2022-10-16T06:47:22;4.65;;;1.83;;
46090;SDS011;31826;53.572;10.170;2022-10-16T06:49:48;4.07;;;1.90;;
46090;SDS011;31826;53.572;10.170;2022-10-16T06:52:14;6.05;;;1.90;;
46090;SDS011;31826;53.572;10.170;2022-10-16T06:54:40;6.27;;;2.00;;
46090;SDS011;31826;53.572;10.170;2022-10-16T06:57:05;4.77;;;1.90;;
46090;SDS011;31826;53.572;10.170;2022-10-16T06:59:31;5.17;;;2.20;;
46090;SDS011;31826;53.572;10.170;2022-10-16T07:01:57;5.80;;;1.98;;
46090;SDS011;31826;53.572;10.170;2022-10-16T07:04:22;5.30;;;1.90;;
46090;SDS011;31826;53.572;10.170;2022-10-16T07:06:48;4.13;;;2.28;;
46090;SDS011;31826;53.572;10.170;2022-10-16T07:09:14;5.07;;;2.13;;
46090;SDS011;31826;53.572;10.170;2022-10-16T07:11:40;6.65;;;2.38;;
46090;SDS011;31826;53.572;10.170;2022-10-16T07:14:12;4.53;;;2.38;;
46090;SDS011;31826;53.572;10.170;2022-10-16T07:16:41;4.45;;;2.15;;
46090;SDS011;31826;53.572;10.170;2022-10-16T07:19:07;5.78;;;2.28;;
46090;SDS011;31826;53.572;10.170;2022-10-16T07:21:33;7.68;;;2.30;;
46090;SDS011;31826;53.572;10.170;2022-10-16T07:24:03;6.38;;;2.45;;
46090;SDS011;31826;53.572;10.170;2022-10-16T07:26:32;6.07;;;2.45;;
46090;SDS011;31826;53.572;10.170;2022-10-16T07:29:00;7.15;;;2.10;;
46090;SDS011;31826;53.572;10.170;2022-10-16T07:31:26;7.80;;;2.60;;
46090;SDS011;31826;53.572;10.170;2022-10-16T07:33:53;9.40;;;2.60;;
46090;SDS011;31826;53.572;10.170;2022-10-16T07:36:19;7.75;;;2.50;;
46090;SDS011;31826;53.572;10.170;2022-10-16T07:38:46;4.88;;;2.20;;
46090;SDS011;31826;53.572;10.170;2022-10-16T07:41:13;4.47;;;2.03;;
46090;SDS011;31826;53.572;10.170;2022-10-16T07:43:45;6.65;;;2.10;;
46090;SDS011;31826;53.572;10.170;2022-10-16T07:46:11;6.18;;;2.58;;
46090;SDS011;31826;53.572;10.170;2022-10-16T07:48:37;5.73;;;2.57;;
46090;SDS011;31826;53.572;10.170;2022-10-16T07:51:03;8.38;;;2.30;;
46090;SDS011;31826;53.572;10.170;2022-10-16T07:53:30;8.85;;;2.28;;
46090;SDS011;31826;53.572;10.170;2022-10-16T07:56:00;10.05;;;2.30;;
46090;SDS011;31826;53.572;10.170;2022-10-16T07:58:27;6.57;;;2.37;;
46090;SDS011;31826;53.572;10.170;2022-10-16T08:00:54;5.03;;;2.17;;
46090;SDS011;31826;53.572;10.170;2022-10-16T08:03:20;5.43;;;2.43;;
46090;SDS011;31826;53.572;10.170;2022-10-16T08:05:46;4.93;;;2.10;;
46090;SDS011;31826;53.572;10.170;2022-10-16T08:08:13;7.85;;;2.53;;
46090;SDS011;31826;53.572;10.170;2022-10-16T08:10:39;5.00;;;2.00;;
46090;SDS011;31826;53.572;10.170;2022-10-16T08:13:05;7.03;;;2.30;;
46090;SDS011;31826;53.572;10.170;2022-10-16T08:15:31;7.07;;;2.30;;
46090;SDS011;31826;53.572;10.170;2022-10-16T08:17:57;8.13;;;2.35;;
46090;SDS011;31826;53.572;10.170;2022-10-16T08:20:25;4.50;;;2.22;;
46090;SDS011;31826;53.572;10.170;2022-10-16T08:22:51;5.38;;;2.28;;
46090;SDS011;31826;53.572;10.170;2022-10-16T08:25:17;9.35;;;3.40;;
46090;SDS011;31826;53.572;10.170;2022-10-16T08:27:43;5.30;;;2.03;;
46090;SDS011;31826;53.572;10.170;2022-10-16T08:30:09;6.45;;;1.90;;
46090;SDS011;31826;53.572;10.170;2022-10-16T08:32:36;4.28;;;2.00;;
46090;SDS011;31826;53.572;10.170;2022-10-16T08:35:01;3.72;;;2.33;;
46090;SDS011;31826;53.572;10.170;2022-10-16T08:37:31;4.90;;;2.10;;
46090;SDS011;31826;53.572;10.170;2022-10-16T08:39:57;4.30;;;1.90;;
46090;SDS011;31826;53.572;10.170;2022-10-16T08:45:23;5.45;;;1.92;;
46090;SDS011;31826;53.572;10.170;2022-10-16T08:50:40;4.63;;;1.60;;
46090;SDS011;31826;53.572;10.170;2022-10-16T08:53:06;5.07;;;2.00;;
46090;SDS011;31826;53.572;10.170;2022-10-16T08:55:43;6.03;;;1.73;;
46090;SDS011;31826;53.572;10.170;2022-10-16T08:58:19;4.07;;;1.70;;
46090;SDS011;31826;53.572;10.170;2022-10-16T09:00:47;3.63;;;1.73;;
46090;SDS011;31826;53.572;10.170;2022-10-16T09:06:10;3.50;;;1.60;;
46090;SDS011;31826;53.572;10.170;2022-10-16T09:09:04;2.05;;;1.33;;
46090;SDS011;31826;53.572;10.170;2022-10-16T09:14:22;5.15;;;1.52;;
46090;SDS011;31826;53.572;10.170;2022-10-16T09:20:09;2.80;;;1.35;;
46090;SDS011;31826;53.572;10.170;2022-10-16T09:23:19;5.07;;;1.65;;
46090;SDS011;31826;53.572;10.170;2022-10-16T09:25:52;3.80;;;1.50;;
46090;SDS011;31826;53.572;10.170;2022-10-16T09:28:19;2.63;;;1.33;;
46090;SDS011;31826;53.572;10.170;2022-10-16T09:30:46;2.58;;;1.40;;
46090;SDS011;31826;53.572;10.170;2022-10-16T09:33:15;3.42;;;1.30;;
46090;SDS011;31826;53.572;10.170;2022-10-16T09:35:45;7.68;;;1.52;;
46090;SDS011;31826;53.572;10.170;2022-10-16T09:38:35;2.33;;;1.20;;
46090;SDS011;31826;53.572;10.170;2022-10-16T09:41:03;3.05;;;1.25;;
46090;SDS011;31826;53.572;10.170;2022-10-16T09:46:29;3.42;;;1.20;;
46090;SDS011;31826;53.572;10.170;2022-10-16T09:48:59;2.78;;;1.42;;
46090;SDS011;31826;53.572;10.170;2022-10-16T09:51:48;4.18;;;1.30;;
46090;SDS011;31826;53.572;10.170;2022-10-16T09:54:16;5.03;;;1.10;;
46090;SDS011;31826;53.572;10.170;2022-10-16T09:56:43;1.80;;;0.98;;
46090;SDS011;31826;53.572;10.170;2022-10-16T09:59:19;2.87;;;1.23;;
46090;SDS011;31826;53.572;10.170;2022-10-16T10:01:55;2.60;;;1.20;;
46090;SDS011;31826;53.572;10.170;2022-10-16T10:04:24;3.47;;;0.98;;
46090;SDS011;31826;53.572;10.170;2022-10-16T10:06:54;2.95;;;1.48;;
46090;SDS011;31826;53.572;10.170;2022-10-16T10:11:55;2.83;;;1.00;;
46090;SDS011;31826;53.572;10.170;2022-10-16T10:19:37;2.53;;;1.00;;
46090;SDS011;31826;53.572;10.170;2022-10-16T10:33:12;1.55;;;0.95;;
46090;SDS011;31826;53.572;10.170;2022-10-16T10:35:56;2.97;;;0.93;;
46090;SDS011;31826;53.572;10.170;2022-10-16T10:41:27;3.22;;;1.10;;
46090;SDS011;31826;53.572;10.170;2022-10-16T10:46:50;3.57;;;1.23;;
46090;SDS011;31826;53.572;10.170;2022-10-16T10:49:31;3.50;;;1.15;;
46090;SDS011;31826;53.572;10.170;2022-10-16T10:54:56;2.57;;;0.93;;
46090;SDS011;31826;53.572;10.170;2022-10-16T11:00:56;1.77;;;1.00;;
46090;SDS011;31826;53.572;10.170;2022-10-16T11:03:58;1.63;;;0.75;;
46090;SDS011;31826;53.572;10.170;2022-10-16T11:06:51;2.63;;;0.90;;
46090;SDS011;31826;53.572;10.170;2022-10-16T11:09:30;2.78;;;0.95;;
46090;SDS011;31826;53.572;10.170;2022-10-16T11:12:13;4.40;;;1.00;;
46090;SDS011;31826;53.572;10.170;2022-10-16T11:14:58;1.60;;;0.80;;
46090;SDS011;31826;53.572;10.170;2022-10-16T11:17:47;4.07;;;1.08;;
46090;SDS011;31826;53.572;10.170;2022-10-16T11:20:37;1.90;;;0.80;;
46090;SDS011;31826;53.572;10.170;2022-10-16T11:23:26;3.80;;;0.98;;
46090;SDS011;31826;53.572;10.170;2022-10-16T11:26:24;2.17;;;0.70;;
46090;SDS011;31826;53.572;10.170;2022-10-16T11:29:01;3.05;;;1.23;;
46090;SDS011;31826;53.572;10.170;2022-10-16T11:34:29;2.90;;;0.98;;
46090;SDS011;31826;53.572;10.170;2022-10-16T11:39:33;3.38;;;0.93;;
46090;SDS011;31826;53.572;10.170;2022-10-16T11:42:01;4.87;;;1.40;;
46090;SDS011;31826;53.572;10.170;2022-10-16T11:44:54;3.13;;;0.80;;
46090;SDS011;31826;53.572;10.170;2022-10-16T11:55:36;1.80;;;1.00;;
46090;SDS011;31826;53.572;10.170;2022-10-16T11:58:09;3.97;;;1.45;;
46090;SDS011;31826;53.572;10.170;2022-10-16T12:00:53;3.85;;;0.90;;
46090;SDS011;31826;53.572;10.170;2022-10-16T12:03:40;1.55;;;0.85;;
46090;SDS011;31826;53.572;10.170;2022-10-16T12:08:55;3.20;;;1.10;;
46090;SDS011;31826;53.572;10.170;2022-10-16T12:17:00;4.60;;;1.00;;
46090;SDS011;31826;53.572;10.170;2022-10-16T12:19:26;2.40;;;0.90;;
46090;SDS011;31826;53.572;10.170;2022-10-16T12:21:55;3.92;;;1.00;;
46090;SDS011;31826;53.572;10.170;2022-10-16T12:24:38;3.90;;;0.90;;
46090;SDS011;31826;53.572;10.170;2022-10-16T12:27:21;4.57;;;0.98;;
46090;SDS011;31826;53.572;10.170;2022-10-16T12:30:01;3.92;;;0.90;;
46090;SDS011;31826;53.572;10.170;2022-10-16T12:32:37;2.97;;;0.85;;
46090;SDS011;31826;53.572;10.170;2022-10-16T12:35:05;2.63;;;1.00;;
46090;SDS011;31826;53.572;10.170;2022-10-16T12:37:42;2.53;;;0.90;;
46090;SDS011;31826;53.572;10.170;2022-10-16T12:40:14;3.00;;;1.10;;
46090;SDS011;31826;53.572;10.170;2022-10-16T12:42:58;4.63;;;1.00;;
46090;SDS011;31826;53.572;10.170;2022-10-16T12:45:35;3.50;;;0.90;;
46090;SDS011;31826;53.572;10.170;2022-10-16T12:48:04;2.95;;;1.05;;
46090;SDS011;31826;53.572;10.170;2022-10-16T12:50:47;2.50;;;1.00;;
46090;SDS011;31826;53.572;10.170;2022-10-16T12:53:20;4.75;;;1.00;;
46090;SDS011;31826;53.572;10.170;2022-10-16T12:56:03;7.88;;;1.42;;
46090;SDS011;31826;53.572;10.170;2022-10-16T13:04:54;7.03;;;1.30;;
46090;SDS011;31826;53.572;10.170;2022-10-16T13:07:26;2.92;;;1.10;;
46090;SDS011;31826;53.572;10.170;2022-10-16T13:10:02;3.85;;;1.10;;
46090;SDS011;31826;53.572;10.170;2022-10-16T13:26:22;2.42;;;0.95;;
46090;SDS011;31826;53.572;10.170;2022-10-16T13:29:04;3.20;;;0.95;;
46090;SDS011;31826;53.572;10.170;2022-10-16T13:31:30;3.35;;;1.15;;
46090;SDS011;31826;53.572;10.170;2022-10-16T13:33:57;3.28;;;1.00;;
46090;SDS011;31826;53.572;10.170;2022-10-16T13:36:29;3.50;;;0.90;;
46090;SDS011;31826;53.572;10.170;2022-10-16T13:41:46;2.97;;;0.90;;
46090;SDS011;31826;53.572;10.170;2022-10-16T13:44:28;2.25;;;1.00;;
46090;SDS011;31826;53.572;10.170;2022-10-16T13:47:01;1.80;;;0.80;;
46090;SDS011;31826;53.572;10.170;2022-10-16T13:49:28;4.75;;;1.50;;
46090;SDS011;31826;53.572;10.170;2022-10-16T13:51:54;4.10;;;1.13;;
46090;SDS011;31826;53.572;10.170;2022-10-16T13:54:21;3.50;;;1.00;;
46090;SDS011;31826;53.572;10.170;2022-10-16T13:56:47;2.35;;;0.73;;
46090;SDS011;31826;53.572;10.170;2022-10-16T14:01:49;5.80;;;1.33;;
46090;SDS011;31826;53.572;10.170;2022-10-16T14:04:18;4.07;;;1.10;;
46090;SDS011;31826;53.572;10.170;2022-10-16T14:06:45;2.67;;;1.00;;
46090;SDS011;31826;53.572;10.170;2022-10-16T14:09:17;3.50;;;1.10;;
46090;SDS011;31826;53.572;10.170;2022-10-16T14:11:56;2.03;;;0.90;;
46090;SDS011;31826;53.572;10.170;2022-10-16T14:14:30;3.08;;;1.00;;
46090;SDS011;31826;53.572;10.170;2022-10-16T14:17:05;4.03;;;0.90;;
46090;SDS011;31826;53.572;10.170;2022-10-16T14:19:31;1.88;;;0.85;;
46090;SDS011;31826;53.572;10.170;2022-10-16T14:21:57;6.13;;;1.30;;
46090;SDS011;31826;53.572;10.170;2022-10-16T14:24:26;3.25;;;1.20;;
46090;SDS011;31826;53.572;10.170;2022-10-16T14:26:56;2.95;;;0.93;;
46090;SDS011;31826;53.572;10.170;2022-10-16T14:29:23;2.15;;;1.10;;
46090;SDS011;31826;53.572;10.170;2022-10-16T14:31:54;3.47;;;1.15;;
46090;SDS011;31826;53.572;10.170;2022-10-16T14:34:28;8.77;;;1.65;;
46090;SDS011;31826;53.572;10.170;2022-10-16T14:36:58;5.57;;;1.75;;
46090;SDS011;31826;53.572;10.170;2022-10-16T14:39:39;6.60;;;1.30;;
46090;SDS011;31826;53.572;10.170;2022-10-16T14:42:11;2.47;;;1.07;;
46090;SDS011;31826;53.572;10.170;2022-10-16T14:44:41;5.38;;;1.38;;
46090;SDS011;31826;53.572;10.170;2022-10-16T14:47:12;2.95;;;1.20;;
46090;SDS011;31826;53.572;10.170;2022-10-16T14:49:41;5.53;;;1.40;;
46090;SDS011;31826;53.572;10.170;2022-10-16T14:52:11;3.72;;;1.30;;
46090;SDS011;31826;53.572;10.170;2022-10-16T14:54:39;6.93;;;1.20;;
46090;SDS011;31826;53.572;10.170;2022-10-16T14:57:06;6.65;;;1.70;;
46090;SDS011;31826;53.572;10.170;2022-10-16T14:59:45;7.20;;;1.60;;
46090;SDS011;31826;53.572;10.170;2022-10-16T15:04:56;6.38;;;1.50;;
46090;SDS011;31826;53.572;10.170;2022-10-16T15:07:22;4.23;;;1.27;;
46090;SDS011;31826;53.572;10.170;2022-10-16T15:09:48;4.60;;;1.23;;
46090;SDS011;31826;53.572;10.170;2022-10-16T15:12:14;5.60;;;1.60;;
46090;SDS011;31826;53.572;10.170;2022-10-16T15:14:40;4.07;;;1.45;;
46090;SDS011;31826;53.572;10.170;2022-10-16T15:17:08;3.75;;;1.20;;
46090;SDS011;31826;53.572;10.170;2022-10-16T15:19:35;5.30;;;1.20;;
46090;SDS011;31826;53.572;10.170;2022-10-16T15:22:01;3.10;;;1.15;;
46090;SDS011;31826;53.572;10.170;2022-10-16T15:24:26;7.07;;;1.60;;
46090;SDS011;31826;53.572;10.170;2022-10-16T15:26:52;3.57;;;1.27;;
46090;SDS011;31826;53.572;10.170;2022-10-16T15:29:18;3.30;;;1.15;;
46090;SDS011;31826;53.572;10.170;2022-10-16T15:31:43;3.47;;;1.23;;
46090;SDS011;31826;53.572;10.170;2022-10-16T15:34:12;5.07;;;1.38;;
46090;SDS011;31826;53.572;10.170;2022-10-16T15:36:38;6.43;;;1.40;;
46090;SDS011;31826;53.572;10.170;2022-10-16T15:39:05;4.68;;;1.25;;
46090;SDS011;31826;53.572;10.170;2022-10-16T15:41:36;5.72;;;1.40;;
46090;SDS011;31826;53.572;10.170;2022-10-16T15:44:02;6.50;;;1.40;;
46090;SDS011;31826;53.572;10.170;2022-10-16T15:46:28;3.90;;;1.20;;
46090;SDS011;31826;53.572;10.170;2022-10-16T15:48:56;3.83;;;1.48;;
46090;SDS011;31826;53.572;10.170;2022-10-16T15:51:23;5.68;;;1.08;;
46090;SDS011;31826;53.572;10.170;2022-10-16T15:53:50;4.80;;;1.50;;
46090;SDS011;31826;53.572;10.170;2022-10-16T15:56:16;6.13;;;1.63;;
46090;SDS011;31826;53.572;10.170;2022-10-16T15:58:42;9.23;;;1.55;;
46090;SDS011;31826;53.572;10.170;2022-10-16T16:01:09;6.85;;;1.60;;
46090;SDS011;31826;53.572;10.170;2022-10-16T16:03:36;9.20;;;1.27;;
46090;SDS011;31826;53.572;10.170;2022-10-16T16:06:06;9.23;;;1.63;;
46090;SDS011;31826;53.572;10.170;2022-10-16T16:08:33;6.45;;;1.40;;
46090;SDS011;31826;53.572;10.170;2022-10-16T16:11:00;5.00;;;1.50;;
46090;SDS011;31826;53.572;10.170;2022-10-16T16:13:27;3.53;;;1.33;;
46090;SDS011;31826;53.572;10.170;2022-10-16T16:15:53;3.60;;;1.58;;
46090;SDS011;31826;53.572;10.170;2022-10-16T16:18:19;8.93;;;2.40;;
46090;SDS011;31826;53.572;10.170;2022-10-16T16:20:45;5.67;;;1.50;;
46090;SDS011;31826;53.572;10.170;2022-10-16T16:23:10;5.70;;;1.30;;
46090;SDS011;31826;53.572;10.170;2022-10-16T16:25:36;5.23;;;1.50;;
46090;SDS011;31826;53.572;10.170;2022-10-16T16:28:02;5.82;;;1.45;;
46090;SDS011;31826;53.572;10.170;2022-10-16T16:30:28;5.70;;;1.77;;
46090;SDS011;31826;53.572;10.170;2022-10-16T16:32:53;3.90;;;1.20;;
46090;SDS011;31826;53.572;10.170;2022-10-16T16:35:19;5.47;;;1.20;;
46090;SDS011;31826;53.572;10.170;2022-10-16T16:37:46;5.77;;;1.80;;
46090;SDS011;31826;53.572;10.170;2022-10-16T16:40:12;6.22;;;1.70;;
46090;SDS011;31826;53.572;10.170;2022-10-16T16:42:38;4.03;;;1.73;;